Time;durP1;ratioP1;P1;durP2;ratioP2;P2;SDS_P1;SDS_P2;PMS_P1;PMS_P2;Temp;Humidity;BMP_temperature;BMP_pressure;BME280_temperature;BME280_humidity;BME280_pressure;Samples;Min_cycle;Max_cycle;Signal;HPM_P1;HPM_P2
2021/07/23 00:01:02;;;;;;;3.00;0.57;;;18.50;99.90;;;;;;5125363;28;20557;-85
2021/07/23 00:03:27;;;;;;;0.37;0.30;;;18.50;99.90;;;;;;5106324;28;20571;-86
2021/07/23 00:05:53;;;;;;;0.23;0.23;;;18.30;99.90;;;;;;5117780;28;20179;-86
2021/07/23 00:08:18;;;;;;;0.37;0.37;;;18.40;99.90;;;;;;5124781;28;22103;-86
2021/07/23 00:10:44;;;;;;;0.73;0.60;;;18.50;99.90;;;;;;5124672;28;20179;-86
2021/07/23 00:13:09;;;;;;;0.73;0.67;;;18.30;99.90;;;;;;5118757;28;20204;-86
2021/07/23 00:15:35;;;;;;;0.47;0.47;;;18.10;99.90;;;;;;5088627;28;20189;-86
2021/07/23 00:18:01;;;;;;;1.50;0.67;;;18.00;99.90;;;;;;5108026;28;20176;-86
2021/07/23 00:20:27;;;;;;;0.40;0.40;;;18.20;99.90;;;;;;5087870;28;20195;-86
2021/07/23 00:22:52;;;;;;;0.37;0.37;;;18.30;99.90;;;;;;5120567;27;20216;-86
2021/07/23 00:25:18;;;;;;;0.43;0.43;;;18.40;99.90;;;;;;5121666;28;20602;-86
2021/07/23 00:27:44;;;;;;;1.47;0.83;;;18.40;99.90;;;;;;5117685;27;20803;-86
2021/07/23 00:30:10;;;;;;;0.70;0.70;;;18.50;99.90;;;;;;5116050;28;20597;-86
2021/07/23 00:32:35;;;;;;;0.40;0.40;;;18.50;99.90;;;;;;5120134;28;20187;-86
2021/07/23 00:35:01;;;;;;;0.63;0.50;;;18.50;99.90;;;;;;5108929;28;20195;-86
2021/07/23 00:37:27;;;;;;;0.60;0.57;;;18.40;99.90;;;;;;5108902;28;20268;-86
2021/07/23 00:39:53;;;;;;;0.37;0.30;;;18.20;99.90;;;;;;5096233;28;20299;-85
2021/07/23 00:42:19;;;;;;;1.70;0.67;;;18.20;99.90;;;;;;5093815;28;20259;-86
2021/07/23 00:44:44;;;;;;;0.30;0.30;;;18.20;99.90;;;;;;5100574;28;20219;-86
2021/07/23 00:47:10;;;;;;;0.30;0.30;;;18.20;99.90;;;;;;5104139;28;20221;-86
2021/07/23 00:49:36;;;;;;;0.63;0.57;;;18.10;99.90;;;;;;5104954;28;20206;-86
2021/07/23 00:52:03;;;;;;;0.97;0.93;;;18.00;99.90;;;;;;5103114;28;20182;-86
2021/07/23 00:54:29;;;;;;;0.40;0.40;;;18.00;99.90;;;;;;5104371;28;20647;-86
2021/07/23 00:56:55;;;;;;;0.90;0.60;;;18.00;99.90;;;;;;5107197;28;20262;-86
2021/07/23 00:59:20;;;;;;;0.53;0.53;;;18.00;99.90;;;;;;5101112;28;20687;-88
2021/07/23 01:01:46;;;;;;;0.90;0.57;;;18.00;99.90;;;;;;5097267;28;20194;-88
2021/07/23 01:04:12;;;;;;;1.07;0.87;;;18.10;99.90;;;;;;5115232;28;20200;-86
2021/07/23 01:06:38;;;;;;;0.70;0.70;;;18.10;99.90;;;;;;5101072;28;20210;-86
2021/07/23 01:09:03;;;;;;;0.70;0.70;;;18.10;99.90;;;;;;5105522;28;20302;-86
2021/07/23 01:11:29;;;;;;;0.37;0.37;;;18.10;99.90;;;;;;5089953;28;20546;-86
2021/07/23 01:13:57;;;;;;;0.73;0.73;;;18.20;99.90;;;;;;5092541;28;20203;-86
2021/07/23 01:16:22;;;;;;;0.20;0.20;;;18.20;99.90;;;;;;5097479;28;20199;-86
2021/07/23 01:18:48;;;;;;;0.77;0.77;;;18.20;99.90;;;;;;5112784;28;20195;-87
2021/07/23 01:21:16;;;;;;;0.53;0.50;;;18.10;99.90;;;;;;5109420;28;20195;-85
2021/07/23 01:23:43;;;;;;;0.47;0.47;;;18.00;99.90;;;;;;5111581;28;20219;-86
2021/07/23 01:26:08;;;;;;;1.40;0.60;;;18.10;99.90;;;;;;5109944;28;20678;-87
2021/07/23 01:28:36;;;;;;;1.40;0.90;;;18.10;99.90;;;;;;5106621;28;20289;-85
2021/07/23 01:31:02;;;;;;;0.77;0.67;;;18.00;99.90;;;;;;5092512;28;20284;-86
2021/07/23 01:33:31;;;;;;;1.20;1.10;;;17.70;99.90;;;;;;5095598;28;20184;-86
2021/07/23 01:35:58;;;;;;;0.57;0.43;;;17.50;99.90;;;;;;5097097;28;20194;-86
2021/07/23 01:38:27;;;;;;;0.50;0.50;;;17.40;99.90;;;;;;5098359;28;20266;-85
2021/07/23 01:40:54;;;;;;;1.50;0.80;;;17.50;99.90;;;;;;5103201;28;20245;-86
2021/07/23 01:43:30;;;;;;;2.93;0.63;;;17.50;99.90;;;;;;5099213;28;20299;-86
2021/07/23 01:45:57;;;;;;;0.50;0.40;;;17.60;99.90;;;;;;5085304;28;20544;-86
2021/07/23 01:48:23;;;;;;;2.07;0.70;;;17.70;99.90;;;;;;5095794;28;20211;-86
2021/07/23 01:50:48;;;;;;;0.73;0.40;;;17.80;99.90;;;;;;5108136;28;20549;-86
2021/07/23 01:53:14;;;;;;;0.50;0.40;;;17.90;99.90;;;;;;5109311;28;20563;-86
2021/07/23 01:55:42;;;;;;;0.43;0.43;;;17.80;99.90;;;;;;5096859;28;20238;-85
2021/07/23 01:58:12;;;;;;;0.30;0.30;;;17.90;99.90;;;;;;5098005;28;20237;-86
2021/07/23 02:00:38;;;;;;;0.23;0.23;;;17.90;99.90;;;;;;5108783;28;20584;-86
2021/07/23 02:03:03;;;;;;;0.67;0.67;;;17.90;99.90;;;;;;5112239;28;20210;-86
2021/07/23 02:05:29;;;;;;;1.70;0.60;;;17.90;99.90;;;;;;5100729;28;20180;-86
2021/07/23 02:07:54;;;;;;;0.80;0.50;;;17.80;99.90;;;;;;5093994;28;20192;-86
2021/07/23 02:10:20;;;;;;;1.70;0.87;;;17.80;99.90;;;;;;5097857;28;20198;-86
2021/07/23 02:12:45;;;;;;;0.83;0.50;;;17.70;99.90;;;;;;5099862;28;20236;-86
2021/07/23 02:15:11;;;;;;;1.33;0.70;;;17.60;99.90;;;;;;5076665;28;20189;-86
2021/07/23 02:17:37;;;;;;;0.53;0.40;;;17.30;99.90;;;;;;5099929;28;20659;-85
2021/07/23 02:20:03;;;;;;;0.50;0.50;;;17.10;99.90;;;;;;5101325;28;20698;-86
2021/07/23 02:22:29;;;;;;;0.77;0.50;;;17.10;99.90;;;;;;5106905;28;20192;-85
2021/07/23 02:24:54;;;;;;;1.33;0.77;;;16.90;99.90;;;;;;5095619;28;20188;-85
2021/07/23 02:27:20;;;;;;;0.50;0.50;;;16.70;99.90;;;;;;5103835;28;20548;-86
2021/07/23 02:29:45;;;;;;;0.73;0.57;;;16.70;99.90;;;;;;5100493;28;20697;-85
2021/07/23 02:32:11;;;;;;;3.50;0.70;;;16.90;99.90;;;;;;5100875;28;20663;-86
2021/07/23 02:34:36;;;;;;;0.60;0.60;;;17.00;99.90;;;;;;5102450;28;20241;-86
2021/07/23 02:37:02;;;;;;;0.63;0.60;;;17.10;99.90;;;;;;5090350;28;20282;-86
2021/07/23 02:39:28;;;;;;;0.30;0.30;;;17.20;99.90;;;;;;5113095;28;20210;-86
2021/07/23 02:41:54;;;;;;;0.63;0.60;;;17.20;99.90;;;;;;5110639;28;20203;-85
2021/07/23 02:44:19;;;;;;;0.60;0.60;;;17.30;99.90;;;;;;5107205;28;20200;-86
2021/07/23 02:46:45;;;;;;;0.37;0.37;;;17.30;99.90;;;;;;5121865;27;20182;-86
2021/07/23 02:49:11;;;;;;;0.87;0.70;;;17.40;99.90;;;;;;5088496;28;20211;-87
2021/07/23 02:51:36;;;;;;;0.20;0.20;;;17.40;99.90;;;;;;5103836;28;20179;-86
2021/07/23 02:54:02;;;;;;;0.83;0.83;;;17.40;99.90;;;;;;5103576;28;20248;-85
2021/07/23 02:56:27;;;;;;;0.40;0.40;;;17.50;99.90;;;;;;5105711;28;20189;-86
2021/07/23 02:58:53;;;;;;;0.53;0.40;;;17.30;99.90;;;;;;5091290;28;20290;-86
2021/07/23 03:01:18;;;;;;;0.50;0.50;;;17.20;99.90;;;;;;5092554;28;20218;-85
2021/07/23 03:03:49;;;;;;;1.07;0.70;;;17.00;99.90;;;;;;5087132;28;20671;-86
2021/07/23 03:06:15;;;;;;;0.73;0.50;;;17.10;99.90;;;;;;5090346;28;20218;-85
2021/07/23 03:08:40;;;;;;;0.23;0.23;;;17.10;99.90;;;;;;5096977;28;20236;-85
2021/07/23 03:11:06;;;;;;;0.60;0.57;;;17.20;99.90;;;;;;5094518;28;20197;-85
2021/07/23 03:13:31;;;;;;;0.67;0.67;;;17.20;99.90;;;;;;5091317;28;20188;-85
2021/07/23 03:16:11;;;;;;;0.40;0.40;;;17.10;99.90;;;;;;5076162;28;20701;-85
2021/07/23 03:18:38;;;;;;;0.80;0.40;;;17.20;99.90;;;;;;5100196;28;20203;-85
2021/07/23 03:21:03;;;;;;;0.33;0.33;;;17.20;99.90;;;;;;5090951;28;20183;-86
2021/07/23 03:23:29;;;;;;;0.40;0.40;;;17.20;99.90;;;;;;5101552;28;20324;-86
2021/07/23 03:25:56;;;;;;;0.77;0.60;;;16.90;99.90;;;;;;5104717;28;20300;-85
2021/07/23 03:28:21;;;;;;;0.93;0.90;;;16.80;99.90;;;;;;5093896;28;20207;-86
2021/07/23 03:30:47;;;;;;;2.83;0.80;;;16.90;99.90;;;;;;5103710;28;20276;-85
2021/07/23 03:33:12;;;;;;;0.70;0.57;;;17.00;99.90;;;;;;5099134;28;20207;-86
2021/07/23 03:35:38;;;;;;;0.40;0.40;;;17.10;99.90;;;;;;5092555;28;20188;-85
2021/07/23 03:38:03;;;;;;;0.63;0.63;;;17.10;99.90;;;;;;5105029;28;20188;-85
2021/07/23 03:40:29;;;;;;;1.03;0.87;;;17.10;99.90;;;;;;5090156;28;20188;-86
2021/07/23 03:42:54;;;;;;;1.10;0.73;;;17.10;99.90;;;;;;5093825;28;20296;-88
2021/07/23 03:45:20;;;;;;;0.47;0.47;;;17.20;99.90;;;;;;5090165;28;20275;-86
2021/07/23 03:47:46;;;;;;;1.43;1.27;;;17.20;99.90;;;;;;5102554;28;20187;-85
2021/07/23 03:50:11;;;;;;;0.27;0.27;;;17.20;99.90;;;;;;5100206;28;20299;-85
2021/07/23 03:52:37;;;;;;;0.20;0.20;;;17.30;99.90;;;;;;5105349;28;20215;-85
2021/07/23 03:55:03;;;;;;;0.47;0.47;;;17.30;99.90;;;;;;5099404;28;20596;-85
2021/07/23 03:57:28;;;;;;;0.50;0.50;;;17.30;99.90;;;;;;5107964;28;20194;-85
2021/07/23 03:59:54;;;;;;;0.67;0.50;;;17.40;99.90;;;;;;5087927;28;20302;-86
2021/07/23 04:02:19;;;;;;;0.70;0.70;;;17.60;99.90;;;;;;5099147;28;20233;-85
2021/07/23 04:04:45;;;;;;;0.50;0.40;;;17.50;99.90;;;;;;5102006;28;20213;-85
2021/07/23 04:07:10;;;;;;;3.60;0.40;;;17.60;99.90;;;;;;5094788;28;20175;-86
2021/07/23 04:09:36;;;;;;;0.67;0.67;;;17.80;99.90;;;;;;5090647;28;20209;-85
2021/07/23 04:12:01;;;;;;;0.20;0.20;;;17.90;99.90;;;;;;5097385;28;20187;-85
2021/07/23 04:14:39;;;;;;;0.67;0.53;;;18.00;99.90;;;;;;5112543;28;20209;-85
2021/07/23 04:17:05;;;;;;;0.53;0.53;;;18.20;99.90;;;;;;5102292;28;20276;-85
2021/07/23 04:19:30;;;;;;;0.57;0.57;;;18.50;99.90;;;;;;5086639;28;20644;-85
2021/07/23 04:21:56;;;;;;;0.60;0.57;;;18.80;99.90;;;;;;5074689;28;20687;-86
2021/07/23 04:24:22;;;;;;;0.83;0.80;;;18.80;99.90;;;;;;5108842;28;20250;-85
2021/07/23 04:26:48;;;;;;;0.10;0.10;;;18.90;99.90;;;;;;5103968;28;20187;-86
2021/07/23 04:29:14;;;;;;;0.60;0.60;;;18.80;99.90;;;;;;5102895;28;20664;-85
2021/07/23 04:31:39;;;;;;;1.00;1.00;;;18.90;99.90;;;;;;5102356;28;20181;-85
2021/07/23 04:34:05;;;;;;;0.40;0.40;;;18.60;99.90;;;;;;5108864;28;20213;-85
2021/07/23 04:36:33;;;;;;;1.80;0.70;;;18.60;99.90;;;;;;5097241;28;20675;-86
2021/07/23 04:39:03;;;;;;;0.40;0.40;;;18.60;99.90;;;;;;5097425;28;20283;-86
2021/07/23 04:41:28;;;;;;;0.33;0.33;;;18.60;99.90;;;;;;5100651;28;20181;-85
2021/07/23 04:43:54;;;;;;;1.43;1.33;;;18.60;99.90;;;;;;5099636;28;20348;-85
2021/07/23 04:46:19;;;;;;;0.63;0.63;;;18.60;99.90;;;;;;5098215;28;20181;-84
2021/07/23 04:48:45;;;;;;;0.47;0.30;;;18.70;99.90;;;;;;5098190;28;20200;-85
2021/07/23 04:51:10;;;;;;;0.97;0.80;;;18.70;99.90;;;;;;5103400;28;20716;-85
2021/07/23 04:53:36;;;;;;;1.17;1.13;;;18.80;99.90;;;;;;5106736;28;20219;-85
2021/07/23 04:56:04;;;;;;;1.50;1.40;;;18.80;99.90;;;;;;5093695;28;20271;-86
2021/07/23 04:58:30;;;;;;;0.57;0.53;;;18.80;99.90;;;;;;5089675;28;20620;-85
2021/07/23 05:00:55;;;;;;;0.40;0.40;;;18.80;99.90;;;;;;5100492;28;20185;-86
2021/07/23 05:03:24;;;;;;;0.30;0.30;;;18.80;99.90;;;;;;5088611;28;20209;-86
2021/07/23 05:05:50;;;;;;;1.23;0.23;;;18.80;99.90;;;;;;5096195;28;20185;-86
2021/07/23 05:08:16;;;;;;;0.60;0.60;;;18.80;99.90;;;;;;5093805;28;20669;-85
2021/07/23 05:10:43;;;;;;;0.50;0.50;;;18.80;99.90;;;;;;5092612;28;20179;-85
2021/07/23 05:13:09;;;;;;;1.00;1.00;;;18.80;99.90;;;;;;5092416;28;20183;-87
2021/07/23 05:15:40;;;;;;;0.73;0.73;;;18.80;99.90;;;;;;5090824;28;20698;-85
2021/07/23 05:18:08;;;;;;;0.57;0.43;;;18.80;99.90;;;;;;5093620;28;20226;-86
2021/07/23 05:20:33;;;;;;;1.77;1.63;;;18.90;99.90;;;;;;5083695;28;20199;-84
2021/07/23 05:23:00;;;;;;;1.10;0.70;;;18.90;99.90;;;;;;5104066;28;20212;-84
2021/07/23 05:25:26;;;;;;;2.00;0.67;;;19.00;99.90;;;;;;5103709;28;20196;-84
2021/07/23 05:27:51;;;;;;;0.63;0.63;;;19.10;99.90;;;;;;5093564;28;20187;-85
2021/07/23 05:30:17;;;;;;;1.43;0.93;;;19.10;99.90;;;;;;5101040;28;20197;-85
2021/07/23 05:32:42;;;;;;;0.57;0.57;;;19.10;99.90;;;;;;5100588;28;20321;-85
2021/07/23 05:35:08;;;;;;;0.40;0.40;;;19.10;99.90;;;;;;5090528;28;20219;-85
2021/07/23 05:37:36;;;;;;;0.87;0.80;;;19.10;99.90;;;;;;5091147;28;20558;-86
2021/07/23 05:40:02;;;;;;;1.50;1.10;;;19.10;99.90;;;;;;5089508;28;20208;-86
2021/07/23 05:42:54;;;;;;;0.87;0.80;;;19.30;99.90;;;;;;5101560;28;20195;-86
2021/07/23 05:45:20;;;;;;;0.60;0.60;;;19.30;99.90;;;;;;5092865;28;20189;-87
2021/07/23 05:47:46;;;;;;;1.00;1.00;;;19.30;99.90;;;;;;5096948;28;20198;-86
2021/07/23 05:50:12;;;;;;;2.30;0.73;;;19.40;99.90;;;;;;5094342;28;20215;-85
2021/07/23 05:52:39;;;;;;;1.40;1.30;;;19.40;99.90;;;;;;5099328;28;20707;-86
2021/07/23 05:55:05;;;;;;;0.67;0.67;;;19.30;99.90;;;;;;5104514;28;20187;-85
2021/07/23 05:57:30;;;;;;;1.13;0.60;;;19.40;99.90;;;;;;5102414;28;20182;-90
2021/07/23 05:59:56;;;;;;;0.53;0.53;;;19.40;99.90;;;;;;5087153;28;20211;-85
2021/07/23 06:02:21;;;;;;;1.80;0.80;;;19.50;99.90;;;;;;5082817;28;20220;-86
2021/07/23 06:04:47;;;;;;;1.40;0.50;;;19.70;99.90;;;;;;5095854;28;20217;-88
2021/07/23 06:07:18;;;;;;;2.47;1.27;;;19.70;99.90;;;;;;5097961;28;20554;-86
2021/07/23 06:09:44;;;;;;;1.50;1.07;;;19.90;99.90;;;;;;5096041;28;20226;-86
2021/07/23 06:12:10;;;;;;;0.63;0.63;;;20.00;99.90;;;;;;5090332;28;20189;-86
2021/07/23 06:14:35;;;;;;;1.50;1.13;;;20.00;99.90;;;;;;5093476;28;20293;-86
2021/07/23 06:17:01;;;;;;;0.90;0.87;;;20.30;99.90;;;;;;5085409;28;20554;-86
2021/07/23 06:19:27;;;;;;;1.03;0.80;;;20.40;99.90;;;;;;5097592;28;20239;-85
2021/07/23 06:21:57;;;;;;;0.77;0.77;;;20.40;99.90;;;;;;5093164;28;20181;-85
2021/07/23 06:24:23;;;;;;;0.40;0.40;;;20.60;99.90;;;;;;5106696;28;20222;-86
2021/07/23 06:26:49;;;;;;;0.47;0.47;;;20.70;99.90;;;;;;5102101;28;20233;-86
2021/07/23 06:29:14;;;;;;;1.90;1.20;;;20.70;99.90;;;;;;5094680;28;20291;-86
2021/07/23 06:31:40;;;;;;;1.97;0.77;;;20.80;99.90;;;;;;5095968;28;20269;-86
2021/07/23 06:34:05;;;;;;;0.97;0.80;;;21.00;99.90;;;;;;5100403;27;20188;-84
2021/07/23 06:36:32;;;;;;;0.43;0.43;;;21.20;99.90;;;;;;5096982;28;20193;-88
2021/07/23 06:38:58;;;;;;;0.57;0.57;;;21.30;99.90;;;;;;5088313;28;20200;-86
2021/07/23 06:41:23;;;;;;;2.23;0.40;;;21.50;99.90;;;;;;5088349;28;20621;-83
2021/07/23 06:43:51;;;;;;;0.50;0.50;;;21.60;99.90;;;;;;5084519;28;20218;-83
2021/07/23 06:46:17;;;;;;;2.93;0.70;;;21.70;99.90;;;;;;5075942;28;20189;-85
2021/07/23 06:48:42;;;;;;;1.10;0.93;;;21.80;99.90;;;;;;5091070;28;20253;-87
2021/07/23 06:51:08;;;;;;;0.60;0.60;;;21.80;99.90;;;;;;5078348;28;20184;-86
2021/07/23 06:53:34;;;;;;;0.83;0.83;;;21.80;99.90;;;;;;5111258;28;20187;-87
2021/07/23 06:56:01;;;;;;;0.60;0.60;;;22.10;99.90;;;;;;5101144;28;20192;-87
2021/07/23 06:58:26;;;;;;;1.00;0.87;;;22.20;99.90;;;;;;5095376;28;20199;-88
2021/07/23 07:00:52;;;;;;;1.30;0.77;;;22.40;99.90;;;;;;5102380;28;20659;-87
2021/07/23 07:03:18;;;;;;;3.33;1.13;;;22.50;99.90;;;;;;5105236;28;20790;-86
2021/07/23 07:05:48;;;;;;;1.30;1.00;;;22.50;99.90;;;;;;5097922;28;20181;-87
2021/07/23 07:08:14;;;;;;;0.70;0.70;;;22.60;99.90;;;;;;5094777;28;20758;-87
2021/07/23 07:10:39;;;;;;;1.97;0.73;;;22.80;99.90;;;;;;5100583;28;20263;-87
2021/07/23 07:13:05;;;;;;;1.90;0.53;;;22.90;99.90;;;;;;5104849;28;20664;-88
2021/07/23 07:15:30;;;;;;;0.77;0.70;;;23.00;99.90;;;;;;5097055;28;20199;-87
2021/07/23 07:18:00;;;;;;;0.63;0.63;;;23.00;99.90;;;;;;5094500;28;20283;-88
2021/07/23 07:20:27;;;;;;;0.73;0.63;;;23.00;99.90;;;;;;5095945;28;20200;-87
2021/07/23 07:22:54;;;;;;;0.93;0.93;;;23.10;99.90;;;;;;5084794;28;20324;-87
2021/07/23 07:25:20;;;;;;;1.33;0.60;;;23.20;99.90;;;;;;5097965;28;20184;-88
2021/07/23 07:27:46;;;;;;;0.50;0.50;;;23.40;99.90;;;;;;5085815;28;20207;-87
2021/07/23 07:30:12;;;;;;;1.33;1.13;;;23.40;99.90;;;;;;5084534;28;20232;-88
2021/07/23 07:32:37;;;;;;;2.77;0.77;;;23.60;99.90;;;;;;5109371;28;20182;-87
2021/07/23 07:35:04;;;;;;;0.57;0.57;;;23.50;99.90;;;;;;5091963;28;20194;-87
2021/07/23 07:37:30;;;;;;;0.80;0.80;;;23.60;99.90;;;;;;5103765;28;20187;-87
2021/07/23 07:40:07;;;;;;;0.97;0.97;;;23.80;99.90;;;;;;5106478;28;20201;-87
2021/07/23 07:42:33;;;;;;;0.57;0.53;;;23.90;99.90;;;;;;5111691;28;20178;-88
2021/07/23 07:44:59;;;;;;;1.57;1.20;;;24.10;99.90;;;;;;5098371;28;20173;-87
2021/07/23 07:47:25;;;;;;;0.50;0.50;;;24.20;99.90;;;;;;5080763;28;20184;-88
2021/07/23 07:49:50;;;;;;;2.13;0.93;;;24.30;99.90;;;;;;5091868;28;20571;-88
2021/07/23 07:52:19;;;;;;;1.03;0.70;;;24.30;99.90;;;;;;5110467;28;20183;-87
2021/07/23 07:54:46;;;;;;;0.37;0.30;;;24.40;99.90;;;;;;5089356;28;20568;-87
2021/07/23 07:57:12;;;;;;;0.80;0.70;;;24.60;99.90;;;;;;5103121;28;20722;-88
2021/07/23 07:59:38;;;;;;;1.73;0.80;;;24.70;99.90;;;;;;5092842;28;20205;-87
2021/07/23 08:02:10;;;;;;;1.60;0.80;;;24.80;99.90;;;;;;5100441;28;20652;-87
2021/07/23 08:04:36;;;;;;;0.60;0.60;;;24.80;99.90;;;;;;5104900;28;20220;-87
2021/07/23 08:07:06;;;;;;;2.20;1.47;;;24.90;99.90;;;;;;5088856;28;20276;-87
2021/07/23 08:09:51;;;;;;;2.07;1.10;;;25.00;99.90;;;;;;5092605;28;20197;-88
2021/07/23 08:12:17;;;;;;;1.00;0.93;;;25.00;99.90;;;;;;5097351;28;20195;-88
2021/07/23 08:14:42;;;;;;;2.03;1.23;;;25.10;99.90;;;;;;5096796;28;20192;-88
2021/07/23 08:17:14;;;;;;;1.80;1.43;;;25.20;99.90;;;;;;5101135;28;20656;-87
2021/07/23 08:19:40;;;;;;;1.30;1.23;;;25.10;99.90;;;;;;5095194;28;20199;-87
2021/07/23 08:22:07;;;;;;;1.53;0.80;;;25.20;99.90;;;;;;5095295;28;20536;-88
2021/07/23 08:24:33;;;;;;;0.97;0.70;;;25.20;99.90;;;;;;5094167;28;20215;-88
2021/07/23 08:26:59;;;;;;;2.13;0.90;;;25.50;99.90;;;;;;5090237;28;20207;-87
2021/07/23 08:29:25;;;;;;;0.67;0.67;;;25.80;99.90;;;;;;5098126;28;20686;-88
2021/07/23 08:31:51;;;;;;;0.90;0.60;;;26.10;99.90;;;;;;5093468;28;20177;-88
2021/07/23 08:34:16;;;;;;;0.77;0.77;;;26.10;99.90;;;;;;5105768;28;20195;-88
2021/07/23 08:36:42;;;;;;;3.07;1.00;;;26.30;99.90;;;;;;5103768;28;20176;-88
2021/07/23 08:39:08;;;;;;;0.87;0.83;;;26.30;99.90;;;;;;5098731;28;20596;-88
2021/07/23 08:41:35;;;;;;;0.80;0.80;;;26.40;99.90;;;;;;5106563;28;20337;-87
2021/07/23 08:44:03;;;;;;;0.77;0.77;;;26.50;99.90;;;;;;5095938;28;20694;-88
2021/07/23 08:46:29;;;;;;;1.60;1.10;;;26.80;99.90;;;;;;5105055;28;20191;-88
2021/07/23 08:48:57;;;;;;;0.67;0.67;;;27.00;99.90;;;;;;5082077;28;20219;-88
2021/07/23 08:51:23;;;;;;;1.00;1.00;;;27.20;99.90;;;;;;5092258;28;20180;-88
2021/07/23 08:53:48;;;;;;;0.67;0.60;;;27.20;99.90;;;;;;5107519;28;20176;-88
2021/07/23 08:56:14;;;;;;;0.73;0.73;;;27.40;99.90;;;;;;5090059;28;20687;-88
2021/07/23 08:58:39;;;;;;;0.50;0.50;;;27.40;99.90;;;;;;5092923;28;20200;-88
2021/07/23 09:01:06;;;;;;;0.90;0.90;;;27.60;99.90;;;;;;5107636;28;20188;-88
2021/07/23 09:03:33;;;;;;;1.10;0.93;;;27.40;99.90;;;;;;5099070;28;20271;-87
2021/07/23 09:06:16;;;;;;;0.80;0.80;;;27.30;99.90;;;;;;5098586;28;20223;-88
2021/07/23 09:08:50;;;;;;;0.87;0.87;;;27.50;99.90;;;;;;5090900;28;20261;-88
2021/07/23 09:11:24;;;;;;;0.97;0.97;;;26.80;99.90;;;;;;5086617;28;20169;-88
2021/07/23 09:13:50;;;;;;;0.60;0.57;;;27.10;99.90;;;;;;5092695;28;20182;-88
2021/07/23 09:16:24;;;;;;;1.50;1.07;;;27.20;99.90;;;;;;5105566;28;20191;-88
2021/07/23 09:19:05;;;;;;;1.10;1.00;;;26.70;99.90;;;;;;5096448;28;20248;-88
2021/07/23 09:21:32;;;;;;;1.73;1.13;;;27.10;99.90;;;;;;5097553;28;20201;-88
2021/07/23 09:23:58;;;;;;;0.70;0.70;;;27.30;99.90;;;;;;5101399;28;20211;-87
2021/07/23 09:26:26;;;;;;;1.30;1.20;;;27.40;99.90;;;;;;5094363;28;20263;-88
2021/07/23 09:28:53;;;;;;;0.77;0.77;;;27.70;99.90;;;;;;5086044;28;20200;-88
2021/07/23 09:31:28;;;;;;;3.50;1.77;;;27.90;99.90;;;;;;5095170;28;20651;-88
2021/07/23 09:33:55;;;;;;;1.37;1.20;;;27.20;99.90;;;;;;5096887;28;20192;-88
2021/07/23 09:36:20;;;;;;;1.27;1.17;;;27.70;99.90;;;;;;5096392;28;20206;-88
2021/07/23 09:38:47;;;;;;;1.20;1.10;;;28.10;99.90;;;;;;5100528;28;20208;-88
2021/07/23 09:41:25;;;;;;;2.20;1.43;;;27.70;99.90;;;;;;5096810;28;20180;-88
2021/07/23 09:44:08;;;;;;;2.07;1.10;;;26.80;99.90;;;;;;5106178;28;20299;-88
2021/07/23 09:46:48;;;;;;;2.40;1.10;;;27.20;99.90;;;;;;5086207;28;20218;-87
2021/07/23 09:49:24;;;;;;;0.70;0.70;;;27.00;99.90;;;;;;5095549;28;20204;-88
2021/07/23 09:51:51;;;;;;;2.73;0.83;;;27.60;99.90;;;;;;5086807;28;20168;-88
2021/07/23 09:54:18;;;;;;;0.77;0.73;;;27.70;99.90;;;;;;5094575;28;20917;-88
2021/07/23 09:56:45;;;;;;;0.80;0.70;;;28.00;99.90;;;;;;5108937;27;20578;-88
2021/07/23 09:59:35;;;;;;;0.53;0.53;;;28.10;99.90;;;;;;5098304;28;20197;-88
2021/07/23 10:02:02;;;;;;;4.57;1.20;;;28.60;99.90;;;;;;5069266;28;20203;-88
2021/07/23 10:04:41;;;;;;;0.68;0.68;;;28.40;99.90;;;;;;5100977;28;20207;-88
2021/07/23 10:07:15;;;;;;;1.35;1.25;;;28.60;99.90;;;;;;5089184;28;20653;-88
2021/07/23 10:09:45;;;;;;;0.95;0.95;;;28.20;99.90;;;;;;5094881;28;20206;-88
2021/07/23 10:12:12;;;;;;;2.72;1.10;;;28.60;99.90;;;;;;5102880;28;20179;-88
2021/07/23 10:14:44;;;;;;;1.50;1.20;;;28.70;99.90;;;;;;5095422;28;20749;-88
2021/07/23 10:17:10;;;;;;;2.13;1.25;;;28.50;99.90;;;;;;5084582;28;20184;-92
2021/07/23 10:19:37;;;;;;;1.15;0.98;;;28.00;99.90;;;;;;5103412;28;20210;-88
2021/07/23 10:22:03;;;;;;;1.77;1.42;;;27.60;99.90;;;;;;5109474;27;20184;-88
2021/07/23 10:24:35;;;;;;;3.83;1.25;;;28.30;99.90;;;;;;5095093;28;20295;-88
2021/07/23 10:27:11;;;;;;;1.25;1.13;;;29.10;99.90;;;;;;5094670;28;20187;-88
2021/07/23 10:29:53;;;;;;;1.15;1.05;;;28.70;99.90;;;;;;5107309;28;20268;-88
2021/07/23 10:32:25;;;;;;;2.78;1.80;;;29.10;99.90;;;;;;5094773;28;20652;-88
2021/07/23 10:34:55;;;;;;;1.38;1.23;;;28.70;99.90;;;;;;5084014;28;20604;-89
2021/07/23 10:37:30;;;;;;;1.35;1.25;;;29.00;99.90;;;;;;5102645;28;20242;-88
2021/07/23 10:40:12;;;;;;;1.08;0.95;;;29.90;99.90;;;;;;5092597;28;20212;-88
2021/07/23 10:42:42;;;;;;;1.10;1.00;;;30.40;99.90;;;;;;5084773;28;20190;-88
2021/07/23 10:45:43;;;;;;;1.48;1.38;;;30.70;99.90;;;;;;5093308;28;20276;-88
2021/07/23 10:48:48;;;;;;;0.57;0.57;;;30.70;99.90;;;;;;5107269;28;20180;-88
2021/07/23 10:52:02;;;;;;;3.92;0.93;;;30.40;99.90;;;;;;5083877;28;20271;-88
2021/07/23 10:54:32;;;;;;;1.50;1.40;;;29.50;99.90;;;;;;5110957;27;20183;-89
2021/07/23 10:57:00;;;;;;;1.08;1.00;;;28.30;99.90;;;;;;5114015;27;20180;-88
2021/07/23 10:59:50;;;;;;;1.05;0.82;;;28.40;99.90;;;;;;5095469;28;20210;-89
2021/07/23 11:02:18;;;;;;;1.17;1.05;;;28.20;99.90;;;;;;5110880;28;20679;-88
2021/07/23 11:04:45;;;;;;;1.40;1.30;;;27.30;99.90;;;;;;5089178;28;20571;-88
2021/07/23 11:07:12;;;;;;;2.50;1.73;;;27.40;99.90;;;;;;5092707;28;20280;-89
2021/07/23 11:09:58;;;;;;;1.33;1.23;;;26.90;99.90;;;;;;5102970;28;20568;-89
2021/07/23 11:12:31;;;;;;;1.70;1.60;;;26.90;99.90;;;;;;5084727;28;20211;-89
2021/07/23 11:15:07;;;;;;;1.20;1.17;;;26.90;99.90;;;;;;5085787;28;20532;-88
2021/07/23 11:17:54;;;;;;;1.38;1.25;;;27.20;99.90;;;;;;5084700;28;20188;-89
2021/07/23 11:20:39;;;;;;;2.07;1.30;;;27.20;99.90;;;;;;5093420;28;20196;-89
2021/07/23 11:23:06;;;;;;;1.03;1.03;;;27.70;99.90;;;;;;5089119;28;20239;-88
2021/07/23 11:25:32;;;;;;;0.93;0.83;;;27.80;99.90;;;;;;5085142;28;20927;-88
2021/07/23 11:28:07;;;;;;;1.03;1.03;;;28.10;99.90;;;;;;5091306;28;20260;-88
2021/07/23 11:30:36;;;;;;;2.47;1.70;;;28.40;99.90;;;;;;5103180;28;20554;-88
2021/07/23 11:33:06;;;;;;;2.77;1.57;;;28.80;99.90;;;;;;5102642;28;20205;-88
2021/07/23 11:35:39;;;;;;;2.10;1.30;;;28.30;99.90;;;;;;5090373;28;20173;-88
2021/07/23 11:38:12;;;;;;;1.13;0.90;;;28.20;99.90;;;;;;5099361;28;20549;-88
2021/07/23 11:40:38;;;;;;;1.40;1.30;;;28.30;99.90;;;;;;5107948;28;20176;-88
2021/07/23 11:43:04;;;;;;;1.80;1.42;;;28.00;99.90;;;;;;5101646;28;20212;-88
2021/07/23 11:45:34;;;;;;;1.43;1.33;;;27.80;99.90;;;;;;5080620;28;20712;-88
2021/07/23 11:48:13;;;;;;;2.08;1.05;;;28.20;99.90;;;;;;5089795;28;20268;-88
2021/07/23 11:50:55;;;;;;;1.48;1.25;;;28.00;99.90;;;;;;5071703;28;20343;-88
2021/07/23 11:53:22;;;;;;;0.80;0.80;;;28.00;99.90;;;;;;5100667;28;20182;-88
2021/07/23 11:55:48;;;;;;;1.30;1.15;;;28.60;99.90;;;;;;5094434;28;20189;-88
2021/07/23 11:58:25;;;;;;;1.80;1.00;;;28.90;99.90;;;;;;5098287;28;20206;-88
2021/07/23 12:00:56;;;;;;;2.67;2.20;;;29.50;99.90;;;;;;5096932;28;20181;-88
2021/07/23 12:03:23;;;;;;;4.47;1.55;;;29.20;99.90;;;;;;5105863;28;20204;-89
2021/07/23 12:05:51;;;;;;;1.38;1.10;;;29.90;99.90;;;;;;5079956;28;20181;-89
2021/07/23 12:08:17;;;;;;;1.30;1.20;;;29.70;99.90;;;;;;5094721;28;20177;-88
2021/07/23 12:10:44;;;;;;;0.82;0.80;;;29.20;99.90;;;;;;5088839;28;20246;-88
2021/07/23 12:13:11;;;;;;;1.52;1.02;;;28.40;99.90;;;;;;5100735;28;20220;-89
2021/07/23 12:15:55;;;;;;;2.40;1.35;;;28.10;99.90;;;;;;5079436;28;20192;-88
2021/07/23 12:18:22;;;;;;;1.65;1.55;;;27.80;99.90;;;;;;5091911;28;20294;-88
2021/07/23 12:20:51;;;;;;;2.10;1.27;;;27.70;99.90;;;;;;5100599;28;20699;-88
2021/07/23 12:23:31;;;;;;;1.45;1.30;;;27.20;99.90;;;;;;5100004;28;20298;-88
2021/07/23 12:25:57;;;;;;;1.80;1.53;;;26.80;99.90;;;;;;5096115;28;20180;-88
2021/07/23 12:28:23;;;;;;;1.47;1.30;;;26.70;99.90;;;;;;5097481;28;20559;-87
2021/07/23 12:30:49;;;;;;;2.67;1.10;;;26.80;99.90;;;;;;5098290;28;20188;-88
2021/07/23 12:33:17;;;;;;;1.50;1.00;;;26.90;99.90;;;;;;5104481;28;20212;-88
2021/07/23 12:35:52;;;;;;;1.50;1.40;;;26.80;99.90;;;;;;5097435;28;20191;-88
2021/07/23 12:38:18;;;;;;;1.80;1.27;;;26.60;99.90;;;;;;5086572;28;20541;-88
2021/07/23 12:40:45;;;;;;;1.47;1.03;;;26.60;99.90;;;;;;5085104;28;20201;-87
2021/07/23 12:43:11;;;;;;;2.03;1.20;;;26.80;99.90;;;;;;5103041;28;20211;-88
2021/07/23 12:45:37;;;;;;;2.20;1.73;;;26.90;99.90;;;;;;5096911;28;20656;-88
2021/07/23 12:48:09;;;;;;;1.20;1.03;;;27.60;99.90;;;;;;5094196;28;20190;-87
2021/07/23 12:50:35;;;;;;;1.40;1.17;;;27.80;99.90;;;;;;5106650;28;20177;-88
2021/07/23 12:53:01;;;;;;;0.83;0.83;;;28.00;99.90;;;;;;5104815;28;20199;-88